sensor_id;sensor_type;location;lat;lon;timestamp;temperature;humidity
23120;DHT22;11729;50.836;4.330;2023-04-01T00:01:26;10.90;99.90
23120;DHT22;11729;50.836;4.330;2023-04-01T00:03:53;10.90;99.90
23120;DHT22;11729;50.836;4.330;2023-04-01T00:06:19;10.80;99.90
23120;DHT22;11729;50.836;4.330;2023-04-01T00:08:45;10.80;99.90
23120;DHT22;11729;50.836;4.330;2023-04-01T00:11:12;10.80;99.90
23120;DHT22;11729;50.836;4.330;2023-04-01T00:13:38;10.90;99.90
23120;DHT22;11729;50.836;4.330;2023-04-01T00:16:04;10.90;99.90
23120;DHT22;11729;50.836;4.330;2023-04-01T00:18:30;10.90;99.90
23120;DHT22;11729;50.836;4.330;2023-04-01T00:20:56;10.90;99.90
23120;DHT22;11729;50.836;4.330;2023-04-01T00:23:21;10.90;99.90
23120;DHT22;11729;50.836;4.330;2023-04-01T00:25:47;10.90;99.90
23120;DHT22;11729;50.836;4.330;2023-04-01T00:28:18;10.80;99.90
23120;DHT22;11729;50.836;4.330;2023-04-01T00:30:44;10.80;99.90
23120;DHT22;11729;50.836;4.330;2023-04-01T00:33:10;10.80;99.90
23120;DHT22;11729;50.836;4.330;2023-04-01T00:35:36;10.80;99.90
23120;DHT22;11729;50.836;4.330;2023-04-01T00:38:02;10.80;99.90
23120;DHT22;11729;50.836;4.330;2023-04-01T00:40:34;10.90;99.90
23120;DHT22;11729;50.836;4.330;2023-04-01T00:43:00;10.90;99.90
23120;DHT22;11729;50.836;4.330;2023-04-01T00:47:59;10.80;99.90
23120;DHT22;11729;50.836;4.330;2023-04-01T00:50:28;10.80;99.90
23120;DHT22;11729;50.836;4.330;2023-04-01T00:52:54;10.80;99.90
23120;DHT22;11729;50.836;4.330;2023-04-01T00:55:21;10.60;99.90
23120;DHT22;11729;50.836;4.330;2023-04-01T00:57:48;10.80;99.90
23120;DHT22;11729;50.836;4.330;2023-04-01T01:00:17;10.80;99.90
23120;DHT22;11729;50.836;4.330;2023-04-01T01:02:44;10.60;99.90
23120;DHT22;11729;50.836;4.330;2023-04-01T01:05:18;10.70;99.90
23120;DHT22;11729;50.836;4.330;2023-04-01T01:10:36;10.80;99.90
23120;DHT22;11729;50.836;4.330;2023-04-01T01:15:58;10.70;99.90
23120;DHT22;11729;50.836;4.330;2023-04-01T01:18:37;10.80;99.90
23120;DHT22;11729;50.836;4.330;2023-04-01T01:34:53;10.90;99.90
23120;DHT22;11729;50.836;4.330;2023-04-01T01:37:23;11.00;99.90
23120;DHT22;11729;50.836;4.330;2023-04-01T01:40:01;11.00;99.90
23120;DHT22;11729;50.836;4.330;2023-04-01T01:42:29;10.80;99.90
23120;DHT22;11729;50.836;4.330;2023-04-01T01:44:57;10.80;99.90
23120;DHT22;11729;50.836;4.330;2023-04-01T01:47:25;11.00;99.90
23120;DHT22;11729;50.836;4.330;2023-04-01T01:49:53;11.00;99.90
23120;DHT22;11729;50.836;4.330;2023-04-01T01:52:19;10.90;99.90
23120;DHT22;11729;50.836;4.330;2023-04-01T01:54:53;10.80;99.90
23120;DHT22;11729;50.836;4.330;2023-04-01T01:57:24;10.90;99.90
23120;DHT22;11729;50.836;4.330;2023-04-01T01:59:58;10.80;99.90
23120;DHT22;11729;50.836;4.330;2023-04-01T02:02:25;10.80;99.90
23120;DHT22;11729;50.836;4.330;2023-04-01T02:04:52;10.90;99.90
23120;DHT22;11729;50.836;4.330;2023-04-01T02:07:28;10.90;99.90
23120;DHT22;11729;50.836;4.330;2023-04-01T02:09:56;10.70;99.90
23120;DHT22;11729;50.836;4.330;2023-04-01T02:12:23;10.80;99.90
23120;DHT22;11729;50.836;4.330;2023-04-01T02:14:54;10.80;99.90
23120;DHT22;11729;50.836;4.330;2023-04-01T02:17:24;10.80;99.90
23120;DHT22;11729;50.836;4.330;2023-04-01T02:20:01;10.80;99.90
23120;DHT22;11729;50.836;4.330;2023-04-01T02:22:33;10.80;99.90
23120;DHT22;11729;50.836;4.330;2023-04-01T02:25:05;10.70;99.90
23120;DHT22;11729;50.836;4.330;2023-04-01T02:27:31;10.70;99.90
23120;DHT22;11729;50.836;4.330;2023-04-01T02:29:57;10.80;99.90
23120;DHT22;11729;50.836;4.330;2023-04-01T02:32:23;10.80;99.90
23120;DHT22;11729;50.836;4.330;2023-04-01T02:34:51;10.80;99.90
23120;DHT22;11729;50.836;4.330;2023-04-01T02:37:17;11.00;99.90
23120;DHT22;11729;50.836;4.330;2023-04-01T02:39:43;11.00;99.90
23120;DHT22;11729;50.836;4.330;2023-04-01T02:42:09;10.70;99.90
23120;DHT22;11729;50.836;4.330;2023-04-01T02:44:36;10.90;99.90
23120;DHT22;11729;50.836;4.330;2023-04-01T02:47:02;10.80;99.90
23120;DHT22;11729;50.836;4.330;2023-04-01T02:49:27;10.90;99.90
23120;DHT22;11729;50.836;4.330;2023-04-01T02:51:53;10.80;99.90
23120;DHT22;11729;50.836;4.330;2023-04-01T02:54:19;10.70;99.90
23120;DHT22;11729;50.836;4.330;2023-04-01T02:56:45;10.60;99.90
23120;DHT22;11729;50.836;4.330;2023-04-01T02:59:11;10.60;99.90
23120;DHT22;11729;50.836;4.330;2023-04-01T03:01:37;10.70;99.90
23120;DHT22;11729;50.836;4.330;2023-04-01T03:04:03;10.80;99.90
23120;DHT22;11729;50.836;4.330;2023-04-01T03:06:29;10.60;99.90
23120;DHT22;11729;50.836;4.330;2023-04-01T03:08:55;10.60;99.90
23120;DHT22;11729;50.836;4.330;2023-04-01T03:11:21;10.60;99.90
23120;DHT22;11729;50.836;4.330;2023-04-01T03:13:47;10.60;99.90
23120;DHT22;11729;50.836;4.330;2023-04-01T03:16:14;10.80;99.90
23120;DHT22;11729;50.836;4.330;2023-04-01T03:18:39;10.80;99.90
23120;DHT22;11729;50.836;4.330;2023-04-01T03:21:17;10.80;99.90
23120;DHT22;11729;50.836;4.330;2023-04-01T03:23:43;10.70;99.90
23120;DHT22;11729;50.836;4.330;2023-04-01T03:26:09;10.60;99.90
23120;DHT22;11729;50.836;4.330;2023-04-01T03:28:35;10.50;99.90
23120;DHT22;11729;50.836;4.330;2023-04-01T03:31:01;10.60;99.90
23120;DHT22;11729;50.836;4.330;2023-04-01T03:33:26;10.80;99.90
23120;DHT22;11729;50.836;4.330;2023-04-01T03:35:52;11.00;99.90
23120;DHT22;11729;50.836;4.330;2023-04-01T03:38:18;10.70;99.90
23120;DHT22;11729;50.836;4.330;2023-04-01T03:40:44;10.70;99.90
23120;DHT22;11729;50.836;4.330;2023-04-01T03:43:10;10.60;99.90
23120;DHT22;11729;50.836;4.330;2023-04-01T03:45:46;10.50;99.90
23120;DHT22;11729;50.836;4.330;2023-04-01T03:48:13;10.60;99.90
23120;DHT22;11729;50.836;4.330;2023-04-01T03:50:39;10.90;99.90
23120;DHT22;11729;50.836;4.330;2023-04-01T03:53:04;10.80;99.90
23120;DHT22;11729;50.836;4.330;2023-04-01T03:55:30;10.80;99.90
23120;DHT22;11729;50.836;4.330;2023-04-01T03:57:56;10.70;99.90
23120;DHT22;11729;50.836;4.330;2023-04-01T04:00:22;10.70;99.90
23120;DHT22;11729;50.836;4.330;2023-04-01T04:02:48;10.80;99.90
23120;DHT22;11729;50.836;4.330;2023-04-01T04:05:14;10.80;99.90
23120;DHT22;11729;50.836;4.330;2023-04-01T04:07:40;10.60;99.90
23120;DHT22;11729;50.836;4.330;2023-04-01T04:10:06;10.70;99.90
23120;DHT22;11729;50.836;4.330;2023-04-01T04:12:32;10.70;99.90
23120;DHT22;11729;50.836;4.330;2023-04-01T04:14:57;10.70;99.90
23120;DHT22;11729;50.836;4.330;2023-04-01T04:17:23;10.80;99.90
23120;DHT22;11729;50.836;4.330;2023-04-01T04:19:49;10.70;99.90
23120;DHT22;11729;50.836;4.330;2023-04-01T04:22:14;10.70;99.90
23120;DHT22;11729;50.836;4.330;2023-04-01T04:24:40;10.70;99.90
23120;DHT22;11729;50.836;4.330;2023-04-01T04:27:06;10.70;99.90
23120;DHT22;11729;50.836;4.330;2023-04-01T04:29:32;10.70;99.90
23120;DHT22;11729;50.836;4.330;2023-04-01T04:31:58;10.60;99.90
23120;DHT22;11729;50.836;4.330;2023-04-01T04:34:23;10.60;99.90
23120;DHT22;11729;50.836;4.330;2023-04-01T04:36:52;10.60;99.90
23120;DHT22;11729;50.836;4.330;2023-04-01T04:39:18;10.60;99.90
23120;DHT22;11729;50.836;4.330;2023-04-01T04:41:44;10.60;99.90
23120;DHT22;11729;50.836;4.330;2023-04-01T04:44:09;10.50;99.90
23120;DHT22;11729;50.836;4.330;2023-04-01T04:46:35;10.60;99.90
23120;DHT22;11729;50.836;4.330;2023-04-01T04:49:02;10.70;99.90
23120;DHT22;11729;50.836;4.330;2023-04-01T04:51:28;10.80;99.90
23120;DHT22;11729;50.836;4.330;2023-04-01T04:53:53;10.70;99.90
23120;DHT22;11729;50.836;4.330;2023-04-01T04:56:22;10.50;99.90
23120;DHT22;11729;50.836;4.330;2023-04-01T04:58:48;10.50;99.90
23120;DHT22;11729;50.836;4.330;2023-04-01T05:01:15;10.50;99.90
23120;DHT22;11729;50.836;4.330;2023-04-01T05:03:41;10.40;99.90
23120;DHT22;11729;50.836;4.330;2023-04-01T05:06:09;10.40;99.90
23120;DHT22;11729;50.836;4.330;2023-04-01T05:08:35;10.40;99.90
23120;DHT22;11729;50.836;4.330;2023-04-01T05:11:02;10.40;99.90
23120;DHT22;11729;50.836;4.330;2023-04-01T05:13:28;10.50;99.90
23120;DHT22;11729;50.836;4.330;2023-04-01T05:15:54;10.50;99.90
23120;DHT22;11729;50.836;4.330;2023-04-01T05:18:19;10.60;99.90
23120;DHT22;11729;50.836;4.330;2023-04-01T05:20:53;10.60;99.90
23120;DHT22;11729;50.836;4.330;2023-04-01T05:23:20;10.80;99.90
23120;DHT22;11729;50.836;4.330;2023-04-01T05:25:49;10.60;99.90
23120;DHT22;11729;50.836;4.330;2023-04-01T05:28:16;10.50;99.90
23120;DHT22;11729;50.836;4.330;2023-04-01T05:30:43;10.40;99.90
23120;DHT22;11729;50.836;4.330;2023-04-01T05:33:10;10.40;99.90
23120;DHT22;11729;50.836;4.330;2023-04-01T05:35:36;10.40;99.90
23120;DHT22;11729;50.836;4.330;2023-04-01T05:38:02;10.40;99.90
23120;DHT22;11729;50.836;4.330;2023-04-01T05:40:28;10.50;99.90
23120;DHT22;11729;50.836;4.330;2023-04-01T05:42:54;10.50;99.90
23120;DHT22;11729;50.836;4.330;2023-04-01T05:45:20;10.50;99.90
23120;DHT22;11729;50.836;4.330;2023-04-01T05:47:45;10.60;99.90
23120;DHT22;11729;50.836;4.330;2023-04-01T05:50:11;10.60;99.90
23120;DHT22;11729;50.836;4.330;2023-04-01T05:52:37;10.60;99.90
23120;DHT22;11729;50.836;4.330;2023-04-01T05:55:03;10.40;99.90
23120;DHT22;11729;50.836;4.330;2023-04-01T05:57:30;10.30;99.90
23120;DHT22;11729;50.836;4.330;2023-04-01T05:59:55;10.30;99.90
23120;DHT22;11729;50.836;4.330;2023-04-01T06:02:22;10.40;99.90
23120;DHT22;11729;50.836;4.330;2023-04-01T06:04:48;10.60;99.90
23120;DHT22;11729;50.836;4.330;2023-04-01T06:07:17;10.30;99.90
23120;DHT22;11729;50.836;4.330;2023-04-01T06:09:44;10.40;99.90
23120;DHT22;11729;50.836;4.330;2023-04-01T06:12:36;10.40;99.90
23120;DHT22;11729;50.836;4.330;2023-04-01T06:26:09;10.50;99.90
23120;DHT22;11729;50.836;4.330;2023-04-01T06:31:46;10.60;99.90
23120;DHT22;11729;50.836;4.330;2023-04-01T06:39:59;10.60;99.90
23120;DHT22;11729;50.836;4.330;2023-04-01T06:51:23;10.90;99.90
23120;DHT22;11729;50.836;4.330;2023-04-01T06:54:01;10.60;99.90
23120;DHT22;11729;50.836;4.330;2023-04-01T06:56:29;10.60;99.90
23120;DHT22;11729;50.836;4.330;2023-04-01T07:01:24;10.40;99.90
23120;DHT22;11729;50.836;4.330;2023-04-01T07:03:56;10.60;99.90
23120;DHT22;11729;50.836;4.330;2023-04-01T07:06:35;10.70;99.90
23120;DHT22;11729;50.836;4.330;2023-04-01T07:09:06;10.90;99.90
23120;DHT22;11729;50.836;4.330;2023-04-01T07:11:36;10.80;99.90
23120;DHT22;11729;50.836;4.330;2023-04-01T07:14:06;10.80;99.90
23120;DHT22;11729;50.836;4.330;2023-04-01T07:16:39;10.60;99.90
23120;DHT22;11729;50.836;4.330;2023-04-01T07:21:51;10.60;99.90
23120;DHT22;11729;50.836;4.330;2023-04-01T07:24:26;10.60;99.90
23120;DHT22;11729;50.836;4.330;2023-04-01T07:26:55;10.70;99.90
23120;DHT22;11729;50.836;4.330;2023-04-01T07:29:22;10.80;99.90
23120;DHT22;11729;50.836;4.330;2023-04-01T07:32:02;10.80;99.90
23120;DHT22;11729;50.836;4.330;2023-04-01T07:37:26;10.80;99.90
23120;DHT22;11729;50.836;4.330;2023-04-01T07:42:54;10.80;99.90
23120;DHT22;11729;50.836;4.330;2023-04-01T07:45:40;11.00;99.90
23120;DHT22;11729;50.836;4.330;2023-04-01T07:50:56;10.90;99.90
23120;DHT22;11729;50.836;4.330;2023-04-01T08:01:30;11.00;99.90
23120;DHT22;11729;50.836;4.330;2023-04-01T08:06:32;10.90;99.90
23120;DHT22;11729;50.836;4.330;2023-04-01T08:09:10;11.10;99.90
23120;DHT22;11729;50.836;4.330;2023-04-01T08:11:44;11.00;99.90
23120;DHT22;11729;50.836;4.330;2023-04-01T08:14:24;11.20;99.90
23120;DHT22;11729;50.836;4.330;2023-04-01T08:17:05;11.30;99.90
23120;DHT22;11729;50.836;4.330;2023-04-01T08:22:37;11.10;99.90
23120;DHT22;11729;50.836;4.330;2023-04-01T08:25:05;11.30;99.90
23120;DHT22;11729;50.836;4.330;2023-04-01T08:28:32;11.20;99.90
23120;DHT22;11729;50.836;4.330;2023-04-01T08:33:17;11.10;99.90
23120;DHT22;11729;50.836;4.330;2023-04-01T08:38:32;11.20;99.90
23120;DHT22;11729;50.836;4.330;2023-04-01T08:44:35;11.40;99.90
23120;DHT22;11729;50.836;4.330;2023-04-01T08:53:12;11.30;99.90
23120;DHT22;11729;50.836;4.330;2023-04-01T08:58:58;11.60;99.90
23120;DHT22;11729;50.836;4.330;2023-04-01T09:01:51;11.60;99.90
23120;DHT22;11729;50.836;4.330;2023-04-01T09:07:42;11.20;99.90
23120;DHT22;11729;50.836;4.330;2023-04-01T09:13:08;11.30;99.90
23120;DHT22;11729;50.836;4.330;2023-04-01T09:21:52;11.50;99.90
23120;DHT22;11729;50.836;4.330;2023-04-01T09:36:23;11.50;99.90
23120;DHT22;11729;50.836;4.330;2023-04-01T09:38:59;11.60;99.90
23120;DHT22;11729;50.836;4.330;2023-04-01T09:44:34;11.40;99.90
23120;DHT22;11729;50.836;4.330;2023-04-01T09:52:38;11.70;99.90
23120;DHT22;11729;50.836;4.330;2023-04-01T09:58:01;11.90;99.90
23120;DHT22;11729;50.836;4.330;2023-04-01T10:09:51;12.00;99.90
23120;DHT22;11729;50.836;4.330;2023-04-01T10:18:18;11.90;99.90
23120;DHT22;11729;50.836;4.330;2023-04-01T10:21:12;12.00;99.90
23120;DHT22;11729;50.836;4.330;2023-04-01T10:26:56;12.10;99.90
23120;DHT22;11729;50.836;4.330;2023-04-01T10:29:37;12.30;99.90
23120;DHT22;11729;50.836;4.330;2023-04-01T10:37:42;12.40;99.90
23120;DHT22;11729;50.836;4.330;2023-04-01T11:06:00;13.00;99.90
23120;DHT22;11729;50.836;4.330;2023-04-01T11:17:11;13.10;99.90
23120;DHT22;11729;50.836;4.330;2023-04-01T11:33:44;12.70;99.90
23120;DHT22;11729;50.836;4.330;2023-04-01T11:38:53;13.00;99.90
23120;DHT22;11729;50.836;4.330;2023-04-01T11:44:21;12.50;99.90
23120;DHT22;11729;50.836;4.330;2023-04-01T12:06:11;12.40;99.90
23120;DHT22;11729;50.836;4.330;2023-04-01T12:14:20;12.90;99.90
23120;DHT22;11729;50.836;4.330;2023-04-01T12:22:32;12.90;99.90
23120;DHT22;11729;50.836;4.330;2023-04-01T12:25:14;12.90;99.90
23120;DHT22;11729;50.836;4.330;2023-04-01T12:31:02;13.00;99.90
23120;DHT22;11729;50.836;4.330;2023-04-01T12:44:33;12.80;99.90
23120;DHT22;11729;50.836;4.330;2023-04-01T12:58:31;11.80;99.90
23120;DHT22;11729;50.836;4.330;2023-04-01T13:04:05;12.10;99.90
23120;DHT22;11729;50.836;4.330;2023-04-01T13:12:28;12.20;99.90
23120;DHT22;11729;50.836;4.330;2023-04-01T13:15:22;11.90;99.90
23120;DHT22;11729;50.836;4.330;2023-04-01T13:18:05;11.80;99.90
23120;DHT22;11729;50.836;4.330;2023-04-01T13:26:29;12.00;99.90
23120;DHT22;11729;50.836;4.330;2023-04-01T13:42:35;12.00;99.90
23120;DHT22;11729;50.836;4.330;2023-04-01T13:45:15;11.90;99.90
23120;DHT22;11729;50.836;4.330;2023-04-01T13:53:38;12.60;99.90
23120;DHT22;11729;50.836;4.330;2023-04-01T13:56:22;12.50;99.90
23120;DHT22;11729;50.836;4.330;2023-04-01T14:01:57;12.30;99.90
23120;DHT22;11729;50.836;4.330;2023-04-01T14:24:03;12.20;99.90
23120;DHT22;11729;50.836;4.330;2023-04-01T14:32:30;12.40;99.90
23120;DHT22;11729;50.836;4.330;2023-04-01T14:51:44;12.40;99.90
23120;DHT22;11729;50.836;4.330;2023-04-01T14:54:30;12.50;99.90
23120;DHT22;11729;50.836;4.330;2023-04-01T14:57:15;12.60;99.90
23120;DHT22;11729;50.836;4.330;2023-04-01T15:02:57;12.50;99.90
23120;DHT22;11729;50.836;4.330;2023-04-01T15:08:36;12.30;99.90
23120;DHT22;11729;50.836;4.330;2023-04-01T15:19:45;12.00;99.90
23120;DHT22;11729;50.836;4.330;2023-04-01T15:22:38;12.00;99.90
23120;DHT22;11729;50.836;4.330;2023-04-01T15:28:25;11.80;99.90
23120;DHT22;11729;50.836;4.330;2023-04-01T15:47:41;11.70;99.90
23120;DHT22;11729;50.836;4.330;2023-04-01T15:50:28;11.80;99.90
23120;DHT22;11729;50.836;4.330;2023-04-01T15:53:26;11.70;99.90
23120;DHT22;11729;50.836;4.330;2023-04-01T15:59:09;11.50;99.90
23120;DHT22;11729;50.836;4.330;2023-04-01T16:02:07;11.50;99.90
23120;DHT22;11729;50.836;4.330;2023-04-01T16:07:43;11.50;99.90
23120;DHT22;11729;50.836;4.330;2023-04-01T16:10:31;11.60;99.90
23120;DHT22;11729;50.836;4.330;2023-04-01T16:16:00;11.70;99.90
23120;DHT22;11729;50.836;4.330;2023-04-01T16:18:35;11.50;99.90
23120;DHT22;11729;50.836;4.330;2023-04-01T16:21:10;11.40;99.90
23120;DHT22;11729;50.836;4.330;2023-04-01T16:23:58;11.10;99.90
23120;DHT22;11729;50.836;4.330;2023-04-01T16:26:43;11.20;99.90
23120;DHT22;11729;50.836;4.330;2023-04-01T16:29:28;11.20;99.90
23120;DHT22;11729;50.836;4.330;2023-04-01T16:46:48;11.30;99.90
23120;DHT22;11729;50.836;4.330;2023-04-01T16:48:59;11.30;99.90
23120;DHT22;11729;50.836;4.330;2023-04-01T16:51:41;11.40;99.90
23120;DHT22;11729;50.836;4.330;2023-04-01T16:54:35;11.60;99.90
23120;DHT22;11729;50.836;4.330;2023-04-01T16:57:09;11.50;99.90
23120;DHT22;11729;50.836;4.330;2023-04-01T17:02:14;11.40;99.90
23120;DHT22;11729;50.836;4.330;2023-04-01T17:15:44;11.40;99.90
23120;DHT22;11729;50.836;4.330;2023-04-01T17:18:28;11.50;99.90
23120;DHT22;11729;50.836;4.330;2023-04-01T17:21:19;11.60;99.90
23120;DHT22;11729;50.836;4.330;2023-04-01T17:23:51;12.10;99.90
23120;DHT22;11729;50.836;4.330;2023-04-01T17:29:03;11.40;99.90
23120;DHT22;11729;50.836;4.330;2023-04-01T17:36:51;11.10;99.90
23120;DHT22;11729;50.836;4.330;2023-04-01T17:42:22;11.50;99.90
23120;DHT22;11729;50.836;4.330;2023-04-01T17:45:24;11.50;99.90
23120;DHT22;11729;50.836;4.330;2023-04-01T17:53:22;11.20;99.90
23120;DHT22;11729;50.836;4.330;2023-04-01T18:04:50;11.20;99.90
23120;DHT22;11729;50.836;4.330;2023-04-01T18:15:52;11.00;99.90
23120;DHT22;11729;50.836;4.330;2023-04-01T18:21:36;10.80;99.90
23120;DHT22;11729;50.836;4.330;2023-04-01T18:27:04;10.80;99.90
23120;DHT22;11729;50.836;4.330;2023-04-01T18:29:48;10.80;99.90
23120;DHT22;11729;50.836;4.330;2023-04-01T18:38:15;10.80;99.90
23120;DHT22;11729;50.836;4.330;2023-04-01T18:40:50;10.60;99.90
23120;DHT22;11729;50.836;4.330;2023-04-01T18:51:59;10.90;99.90
23120;DHT22;11729;50.836;4.330;2023-04-01T18:57:27;10.80;99.90
23120;DHT22;11729;50.836;4.330;2023-04-01T19:00:25;10.70;99.90
23120;DHT22;11729;50.836;4.330;2023-04-01T19:03:02;10.80;99.90
23120;DHT22;11729;50.836;4.330;2023-04-01T19:05:39;11.00;99.90
23120;DHT22;11729;50.836;4.330;2023-04-01T19:08:28;11.00;99.90
23120;DHT22;11729;50.836;4.330;2023-04-01T19:11:09;10.80;99.90
23120;DHT22;11729;50.836;4.330;2023-04-01T19:14:00;10.80;99.90
23120;DHT22;11729;50.836;4.330;2023-04-01T19:21:58;10.90;99.90
23120;DHT22;11729;50.836;4.330;2023-04-01T19:24:40;10.60;99.90
23120;DHT22;11729;50.836;4.330;2023-04-01T19:27:29;10.60;99.90
23120;DHT22;11729;50.836;4.330;2023-04-01T19:32:52;10.80;99.90
23120;DHT22;11729;50.836;4.330;2023-04-01T19:35:45;10.90;99.90
23120;DHT22;11729;50.836;4.330;2023-04-01T19:41:46;10.60;99.90
23120;DHT22;11729;50.836;4.330;2023-04-01T19:44:28;10.60;99.90
23120;DHT22;11729;50.836;4.330;2023-04-01T19:52:38;10.60;99.90
23120;DHT22;11729;50.836;4.330;2023-04-01T19:55:39;10.60;99.90
23120;DHT22;11729;50.836;4.330;2023-04-01T19:58:20;10.40;99.90
23120;DHT22;11729;50.836;4.330;2023-04-01T20:00:48;10.60;99.90
23120;DHT22;11729;50.836;4.330;2023-04-01T20:06:22;10.30;99.90
23120;DHT22;11729;50.836;4.330;2023-04-01T20:19:36;10.40;99.90
23120;DHT22;11729;50.836;4.330;2023-04-01T20:22:17;10.30;99.90
23120;DHT22;11729;50.836;4.330;2023-04-01T20:24:48;10.20;99.90
23120;DHT22;11729;50.836;4.330;2023-04-01T20:27:27;10.50;99.90
23120;DHT22;11729;50.836;4.330;2023-04-01T20:32:48;10.50;99.90
23120;DHT22;11729;50.836;4.330;2023-04-01T20:38:22;10.40;99.90
23120;DHT22;11729;50.836;4.330;2023-04-01T20:41:02;10.50;99.90
23120;DHT22;11729;50.836;4.330;2023-04-01T20:46:20;10.90;99.90
23120;DHT22;11729;50.836;4.330;2023-04-01T20:52:16;10.90;99.90
23120;DHT22;11729;50.836;4.330;2023-04-01T21:06:01;10.60;99.90
23120;DHT22;11729;50.836;4.330;2023-04-01T21:14:44;10.50;99.90
23120;DHT22;11729;50.836;4.330;2023-04-01T21:22:33;10.80;99.90
23120;DHT22;11729;50.836;4.330;2023-04-01T21:28:16;10.80;99.90
23120;DHT22;11729;50.836;4.330;2023-04-01T21:31:02;10.60;99.90
23120;DHT22;11729;50.836;4.330;2023-04-01T21:45:18;10.80;99.90
23120;DHT22;11729;50.836;4.330;2023-04-01T21:50:32;10.60;99.90
23120;DHT22;11729;50.836;4.330;2023-04-01T22:06:50;10.90;99.90
23120;DHT22;11729;50.836;4.330;2023-04-01T22:09:32;10.90;99.90
23120;DHT22;11729;50.836;4.330;2023-04-01T22:12:46;10.90;99.90
23120;DHT22;11729;50.836;4.330;2023-04-01T22:17:53;10.70;99.90
23120;DHT22;11729;50.836;4.330;2023-04-01T22:31:48;10.90;99.90
23120;DHT22;11729;50.836;4.330;2023-04-01T22:47:49;10.90;99.90
23120;DHT22;11729;50.836;4.330;2023-04-01T22:50:45;10.60;99.90
23120;DHT22;11729;50.836;4.330;2023-04-01T22:56:05;10.50;99.90
23120;DHT22;11729;50.836;4.330;2023-04-01T22:58:45;10.60;99.90
23120;DHT22;11729;50.836;4.330;2023-04-01T23:01:16;10.70;99.90
23120;DHT22;11729;50.836;4.330;2023-04-01T23:03:46;10.60;99.90
23120;DHT22;11729;50.836;4.330;2023-04-01T23:06:23;10.50;99.90
23120;DHT22;11729;50.836;4.330;2023-04-01T23:09:04;10.40;99.90
23120;DHT22;11729;50.836;4.330;2023-04-01T23:14:54;10.60;99.90
23120;DHT22;11729;50.836;4.330;2023-04-01T23:17:46;10.60;99.90
23120;DHT22;11729;50.836;4.330;2023-04-01T23:23:07;10.30;99.90
23120;DHT22;11729;50.836;4.330;2023-04-01T23:26:23;10.40;99.90
23120;DHT22;11729;50.836;4.330;2023-04-01T23:28:44;10.40;99.90
23120;DHT22;11729;50.836;4.330;2023-04-01T23:31:32;10.50;99.90
23120;DHT22;11729;50.836;4.330;2023-04-01T23:36:50;10.30;99.90
23120;DHT22;11729;50.836;4.330;2023-04-01T23:39:25;10.20;99.90
23120;DHT22;11729;50.836;4.330;2023-04-01T23:41:56;10.20;99.90
23120;DHT22;11729;50.836;4.330;2023-04-01T23:44:25;10.10;99.90
23120;DHT22;11729;50.836;4.330;2023-04-01T23:46:52;10.20;99.90
23120;DHT22;11729;50.836;4.330;2023-04-01T23:49:36;10.40;99.90
23120;DHT22;11729;50.836;4.330;2023-04-01T23:52:20;10.60;99.90
23120;DHT22;11729;50.836;4.330;2023-04-01T23:55:27;10.50;99.90
